CYGV

Havre St Pierre Airport

Havre St-Pierre, Quebec, Canada
TAF CYGV 251338Z 2514/2602 VRB03KT P6SM FEW240 FM251500 VRB03KT P6SM BKN100 OVC200 RMK FCST BASED ON AUTO OBS. NXT FCST BY 252000Z
Issued Valid From Valid To
Apr-25 @ 13:38 UTC
(5 hours ago)
Apr-25 @ 14:00 UTC
(4 hours ago)
Apr-26 @ 02:00 UTC
(in 8 hours)
Expired Click to View Apr-25 @ 14:00 to Apr-25 @ 15:00
TAF CYGV 251338Z 2514/2602 VRB03KT P6SM FEW240
Wind Visibility Clouds
Variable at 3 knots Greater than 6 miles
  • Few at 24,000' AGL
From Apr-25 @ 15:00 to Apr-26 @ 02:00
FM251500 VRB03KT P6SM BKN100 OVC200 RMK FCST BASED ON AUTO OBS. NXT FCST BY 252000Z
Wind Visibility Clouds
Variable at 3 knots Greater than 6 miles
  • Broken at 10,000' AGL
  • Overcast at 20,000' AGL
TAF CYGV 251338Z 2514/2602 VRB03KT P6SM FEW240 FM251500 VRB03KT P6SM BKN100 OVC200 RMK FCST BASED ON AUTO OBS. NXT FCST BY 252000Z
Issued Apr-25 @ 13:38 UTC
(5 hours ago)
Valid From Apr-25 @ 14:00 UTC
(4 hours ago)
Valid To Apr-26 @ 02:00 UTC
(in 8 hours)
Apr-25 @ 14:00 - Apr-25 @ 15:00
Wind Visibility
Variable at 3 knots Greater than 6 miles
Clouds
  • Few at 24,000' AGL
From Apr-25 @ 15:00 - Apr-26 @ 02:00
Wind Visibility
Variable at 3 knots Greater than 6 miles
Clouds
  • Broken at 10,000' AGL
  • Overcast at 20,000' AGL